createdAt,value
2018-05-27T00:02:11.072Z,18.90
2018-05-27T00:04:38.641Z,18.90
2018-05-27T00:07:06.203Z,18.90
2018-05-27T00:09:33.797Z,18.80
2018-05-27T00:12:01.376Z,18.80
2018-05-27T00:14:28.971Z,18.80
2018-05-27T00:16:56.543Z,18.70
2018-05-27T00:19:24.140Z,18.70
2018-05-27T00:21:52.491Z,18.60
2018-05-27T00:24:20.090Z,18.60
2018-05-27T00:26:47.659Z,18.60
2018-05-27T00:29:16.009Z,18.70
2018-05-27T00:31:43.581Z,18.60
2018-05-27T00:34:11.197Z,18.60
2018-05-27T00:36:38.786Z,18.60
2018-05-27T00:39:06.377Z,18.60
2018-05-27T00:41:34.706Z,18.40
2018-05-27T00:44:02.308Z,18.40
2018-05-27T00:46:29.886Z,18.60
2018-05-27T00:48:57.488Z,18.60
2018-05-27T00:51:25.064Z,18.60
2018-05-27T00:53:59.397Z,18.50
2018-05-27T00:56:26.972Z,18.50
2018-05-27T00:58:55.337Z,18.50
2018-05-27T01:01:22.919Z,18.50
2018-05-27T01:03:50.521Z,18.40
2018-05-27T01:06:18.078Z,18.40
2018-05-27T01:08:45.673Z,18.50
2018-05-27T01:11:14.010Z,18.40
2018-05-27T01:13:41.595Z,18.40
2018-05-27T01:16:09.210Z,18.40
2018-05-27T01:18:36.790Z,18.50
2018-05-27T01:21:04.398Z,18.50
2018-05-27T01:23:32.747Z,18.40
2018-05-27T01:26:00.342Z,18.40
2018-05-27T01:28:28.697Z,18.60
2018-05-27T01:30:56.295Z,18.60
2018-05-27T01:33:23.867Z,18.60
2018-05-27T01:35:51.463Z,18.50
2018-05-27T01:38:19.050Z,18.50
2018-05-27T01:40:47.420Z,18.50
2018-05-27T01:43:14.995Z,18.50
2018-05-27T01:45:43.367Z,18.40
2018-05-27T01:48:11.699Z,18.50
2018-05-27T01:50:39.308Z,18.50
2018-05-27T01:53:06.887Z,18.40
2018-05-27T01:55:34.540Z,18.40
2018-05-27T01:58:02.098Z,18.40
2018-05-27T02:00:29.690Z,18.50
2018-05-27T02:02:57.256Z,18.50
2018-05-27T02:05:24.861Z,18.40
2018-05-27T02:07:53.202Z,18.50
2018-05-27T02:10:20.799Z,18.50
2018-05-27T02:12:48.392Z,18.30
2018-05-27T02:15:15.984Z,18.30
2018-05-27T02:17:43.564Z,18.40
2018-05-27T02:20:11.171Z,18.20
2018-05-27T02:22:38.733Z,18.20
2018-05-27T02:25:06.296Z,18.10
2018-05-27T02:27:33.908Z,18.10
2018-05-27T02:30:02.240Z,18.00
2018-05-27T02:32:29.840Z,18.00
2018-05-27T02:34:58.180Z,18.10
2018-05-27T02:37:25.788Z,18.00
2018-05-27T02:39:54.126Z,18.10
2018-05-27T02:42:21.773Z,18.10
2018-05-27T02:44:49.339Z,18.10
2018-05-27T02:47:17.715Z,18.00
2018-05-27T02:49:45.289Z,18.00
2018-05-27T02:52:12.889Z,18.00
2018-05-27T02:54:41.223Z,18.00
2018-05-27T02:57:08.827Z,18.00
2018-05-27T02:59:37.185Z,17.90
2018-05-27T03:02:04.808Z,17.80
2018-05-27T03:04:32.387Z,17.80
2018-05-27T03:06:59.990Z,17.80
2018-05-27T03:09:27.567Z,17.90
2018-05-27T03:11:55.175Z,17.80
2018-05-27T03:14:22.753Z,17.70
2018-05-27T03:16:50.338Z,17.60
2018-05-27T03:19:17.912Z,17.70
2018-05-27T03:21:45.568Z,17.80
2018-05-27T03:24:13.153Z,17.60
2018-05-27T03:26:40.747Z,17.60
2018-05-27T03:29:09.087Z,17.50
2018-05-27T03:31:36.695Z,17.50
2018-05-27T03:34:05.018Z,17.50
2018-05-27T03:36:32.619Z,17.50
2018-05-27T03:39:00.959Z,17.40
2018-05-27T03:41:28.526Z,17.40
2018-05-27T03:43:56.120Z,17.50
2018-05-27T03:46:23.691Z,17.40
2018-05-27T03:48:51.307Z,17.40
2018-05-27T03:51:18.887Z,17.50
2018-05-27T03:53:46.480Z,17.50
2018-05-27T03:56:14.059Z,17.60
2018-05-27T03:58:41.656Z,17.50
2018-05-27T04:01:09.230Z,17.30
2018-05-27T04:03:36.843Z,17.40
2018-05-27T04:06:16.123Z,17.40
2018-05-27T04:08:43.738Z,17.40
2018-05-27T04:11:12.950Z,17.40
2018-05-27T04:13:40.549Z,17.20
2018-05-27T04:16:08.884Z,17.30
2018-05-27T04:18:36.485Z,17.30
2018-05-27T04:21:04.048Z,17.10
2018-05-27T04:23:31.660Z,17.20
2018-05-27T04:25:59.228Z,17.30
2018-05-27T04:28:26.875Z,17.30
2018-05-27T04:30:54.418Z,17.30
2018-05-27T04:33:22.023Z,17.30
2018-05-27T04:35:49.582Z,17.20
2018-05-27T04:38:17.172Z,17.20
2018-05-27T04:40:44.745Z,17.30
2018-05-27T04:43:12.338Z,17.30
2018-05-27T04:45:39.903Z,17.40
2018-05-27T04:48:07.504Z,17.40
2018-05-27T04:50:35.089Z,17.40
2018-05-27T04:53:02.687Z,17.50
2018-05-27T04:55:30.250Z,17.50
2018-05-27T04:57:57.861Z,17.50
2018-05-27T05:00:25.440Z,17.60
2018-05-27T05:02:53.012Z,17.50
2018-05-27T05:05:20.606Z,17.70
2018-05-27T05:07:48.950Z,17.70
2018-05-27T05:10:16.538Z,17.70
2018-05-27T05:12:44.103Z,17.80
2018-05-27T05:15:12.481Z,18.00
2018-05-27T05:17:40.815Z,18.10
2018-05-27T05:20:08.419Z,18.10
2018-05-27T05:22:35.990Z,18.10
2018-05-27T05:25:03.602Z,18.30
2018-05-27T05:27:31.193Z,18.40
2018-05-27T05:29:58.788Z,18.50
2018-05-27T05:32:26.356Z,18.60
2018-05-27T05:34:53.965Z,18.70
2018-05-27T05:37:21.534Z,18.90
2018-05-27T05:39:49.890Z,19.10
2018-05-27T05:42:17.464Z,19.10
2018-05-27T05:44:45.067Z,19.30
2018-05-27T05:47:12.644Z,19.70
2018-05-27T05:49:40.243Z,20.20
2018-05-27T05:52:07.823Z,20.80
2018-05-27T05:54:35.412Z,21.40
2018-05-27T05:57:03.762Z,22.10
2018-05-27T05:59:32.127Z,22.30
2018-05-27T06:01:59.713Z,22.30
2018-05-27T06:04:27.293Z,22.80
2018-05-27T06:06:54.855Z,23.20
2018-05-27T06:09:23.235Z,24.10
2018-05-27T06:11:50.810Z,24.10
2018-05-27T06:14:18.407Z,24.60
2018-05-27T06:16:45.975Z,24.90
2018-05-27T06:19:14.332Z,25.90
2018-05-27T06:21:41.939Z,25.90
2018-05-27T06:24:09.515Z,26.40
2018-05-27T06:26:37.108Z,26.90
2018-05-27T06:29:04.679Z,27.30
2018-05-27T06:31:33.043Z,28.20
2018-05-27T06:34:00.612Z,28.20
2018-05-27T06:36:28.998Z,28.80
2018-05-27T06:38:57.343Z,29.10
2018-05-27T06:41:24.945Z,29.00
2018-05-27T06:43:53.283Z,29.50
2018-05-27T06:46:20.890Z,29.50
2018-05-27T06:48:48.466Z,29.90
2018-05-27T06:51:16.072Z,29.90
2018-05-27T06:53:43.644Z,30.10
2018-05-27T06:56:12.020Z,30.70
2018-05-27T06:58:39.595Z,30.70
2018-05-27T07:01:07.962Z,31.40
2018-05-27T07:03:36.296Z,31.60
2018-05-27T07:06:03.892Z,31.60
2018-05-27T07:08:31.465Z,31.80
2018-05-27T07:10:59.838Z,31.80
2018-05-27T07:13:28.188Z,32.10
2018-05-27T07:15:55.778Z,32.10
2018-05-27T07:18:24.110Z,33.10
2018-05-27T07:20:51.703Z,33.00
2018-05-27T07:23:20.040Z,33.70
2018-05-27T07:25:47.644Z,33.70
2018-05-27T07:28:16.001Z,34.00
2018-05-27T07:30:44.391Z,34.10
2018-05-27T07:33:11.960Z,34.10
2018-05-27T07:35:39.561Z,34.20
2018-05-27T07:38:07.909Z,33.90
2018-05-27T07:40:35.517Z,33.90
2018-05-27T07:43:03.104Z,33.40
2018-05-27T07:45:30.672Z,33.30
2018-05-27T07:47:58.614Z,33.20
2018-05-27T07:50:26.989Z,32.70
2018-05-27T07:52:54.594Z,32.60
2018-05-27T07:55:22.157Z,32.30
2018-05-27T07:57:49.760Z,32.40
2018-05-27T08:00:17.332Z,32.30
2018-05-27T08:02:44.933Z,32.30
2018-05-27T08:05:12.507Z,32.50
2018-05-27T08:07:40.148Z,32.50
2018-05-27T08:10:07.707Z,32.80
2018-05-27T08:12:36.067Z,33.50
2018-05-27T08:15:03.651Z,33.40
2018-05-27T08:17:31.243Z,33.80
2018-05-27T08:19:58.829Z,34.00
2018-05-27T08:22:26.455Z,34.30
2018-05-27T08:24:54.809Z,35.10
2018-05-27T08:27:22.428Z,35.00
2018-05-27T08:29:49.994Z,34.60
2018-05-27T08:32:17.596Z,34.20
2018-05-27T08:34:45.170Z,34.20
2018-05-27T08:37:12.774Z,34.30
2018-05-27T08:39:40.336Z,34.40
2018-05-27T08:42:07.932Z,34.80
2018-05-27T08:44:35.514Z,35.00
2018-05-27T08:47:03.118Z,35.50
2018-05-27T08:49:30.720Z,36.00
2018-05-27T08:51:58.299Z,36.40
2018-05-27T08:54:25.904Z,36.70
2018-05-27T08:56:54.250Z,37.60
2018-05-27T08:59:21.843Z,37.60
2018-05-27T09:01:49.426Z,38.00
2018-05-27T09:04:17.019Z,38.10
2018-05-27T09:06:44.587Z,38.10
2018-05-27T09:09:12.190Z,38.10
2018-05-27T09:11:40.576Z,38.40
2018-05-27T09:14:08.165Z,38.40
2018-05-27T09:16:35.745Z,38.50
2018-05-27T09:19:03.346Z,39.00
2018-05-27T09:21:30.911Z,39.40
2018-05-27T09:23:58.499Z,39.60
2018-05-27T09:26:26.088Z,39.70
2018-05-27T09:28:53.689Z,39.80
2018-05-27T09:31:22.023Z,39.80
2018-05-27T09:33:49.635Z,39.80
2018-05-27T09:36:17.208Z,39.90
2018-05-27T09:38:44.799Z,39.50
2018-05-27T09:41:12.378Z,39.10
2018-05-27T09:43:39.992Z,39.50
2018-05-27T09:46:07.567Z,39.60
2018-05-27T09:48:35.900Z,39.50
2018-05-27T09:51:03.548Z,39.50
2018-05-27T09:53:31.083Z,39.70
2018-05-27T09:55:58.683Z,39.80
2018-05-27T09:58:26.257Z,39.90
2018-05-27T10:00:53.843Z,40.20
2018-05-27T10:03:21.404Z,40.30
2018-05-27T10:05:49.011Z,40.30
2018-05-27T10:08:16.571Z,40.40
2018-05-27T10:10:44.180Z,40.40
2018-05-27T10:13:11.752Z,40.40
2018-05-27T10:15:39.349Z,40.60
2018-05-27T10:18:07.679Z,40.10
2018-05-27T10:20:35.279Z,40.10
2018-05-27T10:23:04.413Z,39.40
2018-05-27T10:25:32.096Z,39.40
2018-05-27T10:27:59.662Z,39.30
2018-05-27T10:30:27.260Z,39.00
2018-05-27T10:32:55.598Z,38.80
2018-05-27T10:35:23.186Z,38.70
2018-05-27T10:37:50.767Z,38.50
2018-05-27T10:40:18.361Z,38.50
2018-05-27T10:42:45.929Z,38.20
2018-05-27T10:45:13.522Z,37.80
2018-05-27T10:47:41.119Z,37.90
2018-05-27T10:50:08.711Z,37.90
2018-05-27T10:52:36.285Z,37.70
2018-05-27T10:55:03.942Z,37.70
2018-05-27T10:57:31.543Z,37.40
2018-05-27T10:59:59.695Z,37.40
2018-05-27T11:02:27.720Z,37.30
2018-05-27T11:04:55.873Z,37.20
2018-05-27T11:07:24.147Z,37.00
2018-05-27T11:09:52.625Z,36.70
2018-05-27T11:12:20.935Z,36.50
2018-05-27T11:14:49.213Z,36.40
2018-05-27T11:17:18.293Z,36.20
2018-05-27T11:19:45.950Z,36.20
2018-05-27T11:22:13.543Z,35.90
2018-05-27T11:24:41.115Z,35.80
2018-05-27T11:27:08.750Z,35.70
2018-05-27T11:29:36.289Z,35.60
2018-05-27T11:32:03.882Z,35.60
2018-05-27T11:34:31.459Z,35.30
2018-05-27T11:36:59.839Z,35.30
2018-05-27T11:39:28.186Z,35.10
2018-05-27T11:41:55.800Z,35.10
2018-05-27T11:44:23.371Z,35.30
2018-05-27T11:46:51.749Z,35.00
2018-05-27T11:49:19.319Z,35.00
2018-05-27T11:51:46.915Z,34.90
2018-05-27T11:54:14.524Z,34.70
2018-05-27T11:56:42.878Z,34.70
2018-05-27T11:59:11.210Z,34.60
2018-05-27T12:01:38.871Z,34.50
2018-05-27T12:04:06.417Z,34.40
2018-05-27T12:06:34.027Z,34.00
2018-05-27T12:09:02.499Z,33.60
2018-05-27T12:11:30.016Z,33.50
2018-05-27T12:13:57.606Z,33.30
2018-05-27T12:16:25.190Z,33.30
2018-05-27T12:18:53.537Z,32.90
2018-05-27T12:21:21.108Z,32.90
2018-05-27T12:23:48.725Z,32.80
2018-05-27T12:26:16.287Z,32.90
2018-05-27T12:28:44.647Z,32.40
2018-05-27T12:31:12.224Z,32.40
2018-05-27T12:33:41.087Z,32.40
2018-05-27T12:36:08.711Z,32.30
2018-05-27T12:38:36.315Z,32.40
2018-05-27T12:41:03.896Z,32.20
2018-05-27T12:43:31.488Z,32.00
2018-05-27T12:45:59.063Z,32.20
2018-05-27T12:48:27.427Z,32.30
2018-05-27T12:50:55.034Z,32.20
2018-05-27T12:53:23.379Z,32.20
2018-05-27T12:55:50.950Z,32.20
2018-05-27T12:58:19.325Z,32.00
2018-05-27T13:00:46.883Z,32.00
2018-05-27T13:03:15.238Z,32.00
2018-05-27T13:05:42.832Z,32.00
2018-05-27T13:08:10.419Z,31.90
2018-05-27T13:10:37.998Z,32.00
2018-05-27T13:13:05.706Z,32.10
2018-05-27T13:15:34.039Z,32.20
2018-05-27T13:18:01.632Z,32.10
2018-05-27T13:20:29.202Z,32.30
2018-05-27T13:22:56.810Z,32.40
2018-05-27T13:25:24.384Z,32.50
2018-05-27T13:27:51.957Z,32.50
2018-05-27T13:30:19.576Z,32.40
2018-05-27T13:32:47.152Z,32.40
2018-05-27T13:35:14.782Z,32.50
2018-05-27T13:37:42.391Z,32.50
2018-05-27T13:40:10.001Z,32.50
2018-05-27T13:42:37.585Z,32.40
2018-05-27T13:45:05.201Z,32.20
2018-05-27T13:47:32.782Z,32.50
2018-05-27T13:50:00.397Z,32.50
2018-05-27T13:52:27.972Z,32.40
2018-05-27T13:54:56.339Z,32.60
2018-05-27T13:57:23.908Z,32.60
2018-05-27T13:59:52.274Z,32.70
2018-05-27T14:02:19.855Z,32.60
2018-05-27T14:04:48.264Z,32.70
2018-05-27T14:07:15.821Z,32.70
2018-05-27T14:09:43.480Z,32.60
2018-05-27T14:12:11.061Z,32.40
2018-05-27T14:14:38.664Z,32.20
2018-05-27T14:17:06.265Z,32.30
2018-05-27T14:19:33.855Z,32.30
2018-05-27T14:22:01.431Z,32.10
2018-05-27T14:24:29.050Z,31.90
2018-05-27T14:26:56.606Z,31.60
2018-05-27T14:29:24.178Z,31.50
2018-05-27T14:31:51.771Z,31.40
2018-05-27T14:34:20.113Z,31.20
2018-05-27T14:36:47.731Z,31.20
2018-05-27T14:39:15.300Z,31.20
2018-05-27T14:41:42.894Z,31.00
2018-05-27T14:44:10.515Z,30.80
2018-05-27T14:46:38.111Z,30.70
2018-05-27T14:49:05.727Z,30.40
2018-05-27T14:51:34.093Z,29.90
2018-05-27T14:54:02.427Z,29.70
2018-05-27T14:56:30.036Z,29.60
2018-05-27T14:58:57.615Z,29.30
2018-05-27T15:01:25.259Z,29.10
2018-05-27T15:03:52.848Z,29.00
2018-05-27T15:06:20.443Z,28.80
2018-05-27T15:08:48.039Z,28.60
2018-05-27T15:11:15.638Z,28.40
2018-05-27T15:13:43.216Z,28.10
2018-05-27T15:16:10.835Z,28.00
2018-05-27T15:18:38.465Z,27.90
2018-05-27T15:21:06.098Z,27.50
2018-05-27T15:23:33.679Z,27.20
2018-05-27T15:26:01.285Z,27.00
2018-05-27T15:28:29.446Z,26.80
2018-05-27T15:30:57.529Z,26.60
2018-05-27T15:33:25.697Z,26.50
2018-05-27T15:35:53.321Z,26.20
2018-05-27T15:38:20.959Z,26.00
2018-05-27T15:40:48.539Z,26.00
2018-05-27T15:43:16.175Z,26.20
2018-05-27T15:45:43.771Z,26.10
2018-05-27T15:48:12.136Z,26.30
2018-05-27T15:50:39.731Z,26.30
2018-05-27T15:53:07.345Z,25.90
2018-05-27T15:55:34.924Z,26.20
2018-05-27T15:58:03.292Z,26.40
2018-05-27T16:00:30.861Z,26.40
2018-05-27T16:02:59.236Z,25.80
2018-05-27T16:05:27.879Z,26.10
2018-05-27T16:07:55.492Z,26.10
2018-05-27T16:10:23.082Z,26.00
2018-05-27T16:12:50.698Z,25.90
2018-05-27T16:15:19.040Z,26.10
2018-05-27T16:17:46.652Z,26.10
2018-05-27T16:20:14.990Z,26.20
2018-05-27T16:22:42.586Z,26.20
2018-05-27T16:25:10.932Z,26.20
2018-05-27T16:27:38.543Z,26.20
2018-05-27T16:30:06.104Z,26.20
2018-05-27T16:32:33.712Z,26.20
2018-05-27T16:35:01.280Z,26.20
2018-05-27T16:37:28.878Z,26.10
2018-05-27T16:39:56.443Z,26.00
2018-05-27T16:42:24.047Z,26.00
2018-05-27T16:44:51.624Z,25.90
2018-05-27T16:47:19.202Z,26.10
2018-05-27T16:49:46.798Z,26.00
2018-05-27T16:52:14.370Z,26.10
2018-05-27T16:54:41.979Z,26.20
2018-05-27T16:57:10.327Z,26.50
2018-05-27T16:59:37.927Z,26.50
2018-05-27T17:02:05.510Z,26.40
2018-05-27T17:04:33.109Z,26.40
2018-05-27T17:07:00.683Z,26.30
2018-05-27T17:09:29.049Z,26.30
2018-05-27T17:11:56.625Z,26.30
2018-05-27T17:14:24.983Z,26.00
2018-05-27T17:16:52.553Z,26.00
2018-05-27T17:19:20.910Z,26.20
2018-05-27T17:21:48.475Z,26.20
2018-05-27T17:24:16.074Z,26.20
2018-05-27T17:26:43.649Z,26.00
2018-05-27T17:29:11.243Z,26.00
2018-05-27T17:31:38.827Z,26.10
2018-05-27T17:34:06.428Z,26.20
2018-05-27T17:36:33.987Z,26.20
2018-05-27T17:39:01.583Z,26.20
2018-05-27T17:41:29.197Z,26.20
2018-05-27T17:43:56.790Z,26.00
2018-05-27T17:46:24.360Z,25.90
2018-05-27T17:48:51.964Z,25.90
2018-05-27T17:51:19.551Z,25.80
2018-05-27T17:53:47.895Z,25.60
2018-05-27T17:56:16.413Z,25.70
2018-05-27T17:58:44.033Z,25.70
2018-05-27T18:01:11.647Z,25.60
2018-05-27T18:03:39.215Z,25.70
2018-05-27T18:06:06.916Z,25.60
2018-05-27T18:08:34.497Z,25.60
2018-05-27T18:11:02.193Z,25.50
2018-05-27T18:13:29.784Z,25.60
2018-05-27T18:15:58.139Z,25.70
2018-05-27T18:18:25.719Z,25.60
2018-05-27T18:20:53.330Z,25.60
2018-05-27T18:23:20.921Z,25.40
2018-05-27T18:25:48.515Z,25.40
2018-05-27T18:28:16.855Z,25.30
2018-05-27T18:30:44.452Z,25.30
2018-05-27T18:33:12.797Z,25.10
2018-05-27T18:35:40.404Z,25.10
2018-05-27T18:38:08.015Z,24.80
2018-05-27T18:40:36.400Z,24.60
2018-05-27T18:43:03.972Z,24.60
2018-05-27T18:45:32.335Z,24.40
2018-05-27T18:47:59.912Z,24.40
2018-05-27T18:50:27.516Z,24.40
2018-05-27T18:52:55.092Z,24.30
2018-05-27T18:55:22.687Z,24.10
2018-05-27T18:57:51.032Z,23.90
2018-05-27T19:00:18.641Z,23.90
2018-05-27T19:02:46.983Z,23.60
2018-05-27T19:05:14.563Z,23.60
2018-05-27T19:07:42.944Z,23.70
2018-05-27T19:10:11.283Z,23.50
2018-05-27T19:12:38.875Z,23.40
2018-05-27T19:15:07.207Z,23.30
2018-05-27T19:17:34.827Z,23.30
2018-05-27T19:20:03.168Z,22.90
2018-05-27T19:22:30.771Z,22.90
2018-05-27T19:24:58.397Z,22.70
2018-05-27T19:27:26.930Z,22.50
2018-05-27T19:29:54.499Z,22.60
2018-05-27T19:32:22.100Z,22.60
2018-05-27T19:34:49.676Z,22.60
2018-05-27T19:37:18.039Z,22.40
2018-05-27T19:39:45.612Z,22.40
2018-05-27T19:42:13.255Z,22.50
2018-05-27T19:44:40.806Z,22.40
2018-05-27T19:47:08.402Z,22.30
2018-05-27T19:49:36.742Z,22.20
2018-05-27T19:52:04.357Z,22.20
2018-05-27T19:54:31.987Z,22.20
2018-05-27T19:56:59.592Z,22.20
2018-05-27T19:59:27.173Z,22.10
2018-05-27T20:01:54.779Z,22.10
2018-05-27T20:04:23.130Z,22.00
2018-05-27T20:06:50.728Z,22.00
2018-05-27T20:09:18.315Z,21.90
2018-05-27T20:11:46.684Z,22.00
2018-05-27T20:14:14.246Z,22.00
2018-05-27T20:16:41.841Z,21.90
2018-05-27T20:19:09.455Z,21.70
2018-05-27T20:21:37.020Z,21.60
2018-05-27T20:24:04.770Z,21.70
2018-05-27T20:26:32.355Z,21.60
2018-05-27T20:28:59.967Z,21.80
2018-05-27T20:31:27.531Z,21.80
2018-05-27T20:33:55.142Z,21.60
2018-05-27T20:36:22.720Z,21.70
2018-05-27T20:38:50.986Z,21.70
2018-05-27T20:41:19.195Z,21.50
2018-05-27T20:43:46.868Z,21.50
2018-05-27T20:46:14.434Z,21.60
2018-05-27T20:48:42.027Z,21.50
2018-05-27T20:51:09.630Z,21.70
2018-05-27T20:53:37.251Z,21.60
2018-05-27T20:56:04.825Z,21.70
2018-05-27T20:58:32.440Z,21.50
2018-05-27T21:01:00.016Z,21.50
2018-05-27T21:03:27.607Z,21.20
2018-05-27T21:05:55.179Z,21.30
2018-05-27T21:08:23.551Z,21.20
2018-05-27T21:10:51.132Z,21.20
2018-05-27T21:13:18.724Z,21.30
2018-05-27T21:15:46.305Z,21.20
2018-05-27T21:18:13.903Z,21.20
2018-05-27T21:20:42.241Z,21.20
2018-05-27T21:23:09.827Z,21.20
2018-05-27T21:25:37.426Z,21.10
2018-05-27T21:28:05.007Z,20.80
2018-05-27T21:30:32.607Z,20.90
2018-05-27T21:33:00.189Z,20.90
2018-05-27T21:35:28.573Z,20.80
2018-05-27T21:37:56.911Z,20.80
2018-05-27T21:40:24.503Z,20.80
2018-05-27T21:42:52.069Z,20.80
2018-05-27T21:45:19.675Z,20.60
2018-05-27T21:47:47.244Z,20.60
2018-05-27T21:50:14.840Z,20.50
2018-05-27T21:52:43.170Z,20.60
2018-05-27T21:55:10.771Z,20.60
2018-05-27T21:57:39.102Z,20.40
2018-05-27T22:00:06.757Z,20.40
2018-05-27T22:02:35.095Z,20.30
2018-05-27T22:05:03.466Z,20.40
2018-05-27T22:07:31.035Z,20.40
2018-05-27T22:09:59.399Z,20.40
2018-05-27T22:12:27.739Z,20.00
2018-05-27T22:14:55.336Z,20.00
2018-05-27T22:17:22.916Z,20.00
2018-05-27T22:19:50.518Z,19.90
2018-05-27T22:22:18.099Z,19.80
2018-05-27T22:24:45.699Z,19.90
2018-05-27T22:27:13.272Z,19.80
2018-05-27T22:29:40.871Z,19.80
2018-05-27T22:32:08.444Z,19.90
2018-05-27T22:34:36.016Z,19.80
2018-05-27T22:37:04.448Z,19.80
2018-05-27T22:39:32.029Z,19.80
2018-05-27T22:41:59.627Z,19.90
2018-05-27T22:44:27.207Z,19.60
2018-05-27T22:46:54.808Z,19.70
2018-05-27T22:49:22.395Z,19.60
2018-05-27T22:51:50.756Z,19.50
2018-05-27T22:54:18.327Z,19.50
2018-05-27T22:56:45.919Z,19.50
2018-05-27T22:59:13.496Z,19.50
2018-05-27T23:01:41.094Z,19.50
2018-05-27T23:04:08.669Z,19.50
2018-05-27T23:06:37.030Z,19.50
2018-05-27T23:09:04.648Z,19.50
2018-05-27T23:11:32.259Z,19.30
2018-05-27T23:14:00.600Z,19.20
2018-05-27T23:16:28.199Z,19.20
2018-05-27T23:18:55.772Z,19.00
2018-05-27T23:21:23.376Z,19.00
2018-05-27T23:23:50.943Z,18.90
2018-05-27T23:26:19.412Z,18.90
2018-05-27T23:28:46.983Z,18.80
2018-05-27T23:31:14.583Z,19.00
2018-05-27T23:33:42.159Z,19.10
2018-05-27T23:36:09.865Z,19.20
2018-05-27T23:38:37.407Z,19.00
2018-05-27T23:41:05.078Z,18.90
2018-05-27T23:43:32.659Z,18.90
2018-05-27T23:46:00.274Z,18.90
2018-05-27T23:48:27.862Z,18.90
2018-05-27T23:50:55.453Z,18.90
2018-05-27T23:53:23.811Z,18.90
2018-05-27T23:55:51.383Z,18.90
2018-05-27T23:58:18.980Z,19.00
